Terminal Aerodrome Forecast
Issued by NWS

Home | Current Version | Previous Version | Text Only | Print | Product List | Glossary On
Versions: 1 2 3 4 5 6 7 8 9 10 11 12 13 14 15 16 17 18 19 20 21 22 23 24 25 26
000
FTAK31 PANC 032331
TAFAIL
TAF
PAIL 032331Z 0400/0424 12014G20KT P6SM FEW100 SCT200
     FM041500 09015G22KT P6SM VCSH SCT035 OVC060
     FM042200 09020G28KT P6SM -SHRA SCT025 OVC040=

USA.gov is the U.S. government's official web portal to all federal, state and local government web resources and services.